sensor_id;sensor_type;location;lat;lon;timestamp;temperature;humidity
68098;DHT22;54886;47.036;15.466;2023-03-23T00:01:09;9.89;63.57
68098;DHT22;54886;47.036;15.466;2023-03-23T00:03:45;9.79;63.78
68098;DHT22;54886;47.036;15.466;2023-03-23T00:06:11;9.76;63.53
68098;DHT22;54886;47.036;15.466;2023-03-23T00:08:46;9.76;63.56
68098;DHT22;54886;47.036;15.466;2023-03-23T00:11:22;9.77;63.66
68098;DHT22;54886;47.036;15.466;2023-03-23T00:13:50;9.72;63.96
68098;DHT22;54886;47.036;15.466;2023-03-23T00:16:20;9.66;64.10
68098;DHT22;54886;47.036;15.466;2023-03-23T00:18:50;9.66;64.34
68098;DHT22;54886;47.036;15.466;2023-03-23T00:21:20;9.66;64.21
68098;DHT22;54886;47.036;15.466;2023-03-23T00:23:45;9.66;63.82
68098;DHT22;54886;47.036;15.466;2023-03-23T00:26:12;9.58;64.25
68098;DHT22;54886;47.036;15.466;2023-03-23T00:28:38;9.59;64.46
68098;DHT22;54886;47.036;15.466;2023-03-23T00:31:06;9.55;64.46
68098;DHT22;54886;47.036;15.466;2023-03-23T00:33:34;9.53;64.58
68098;DHT22;54886;47.036;15.466;2023-03-23T00:36:04;9.49;64.50
68098;DHT22;54886;47.036;15.466;2023-03-23T00:38:30;9.39;65.10
68098;DHT22;54886;47.036;15.466;2023-03-23T00:40:57;9.39;64.48
68098;DHT22;54886;47.036;15.466;2023-03-23T00:43:23;9.32;64.32
68098;DHT22;54886;47.036;15.466;2023-03-23T00:45:50;9.31;64.84
68098;DHT22;54886;47.036;15.466;2023-03-23T00:48:20;9.25;64.95
68098;DHT22;54886;47.036;15.466;2023-03-23T00:50:46;9.21;65.25
68098;DHT22;54886;47.036;15.466;2023-03-23T00:53:11;9.23;65.20
68098;DHT22;54886;47.036;15.466;2023-03-23T00:55:37;9.15;65.55
68098;DHT22;54886;47.036;15.466;2023-03-23T00:58:02;9.06;66.55
68098;DHT22;54886;47.036;15.466;2023-03-23T01:00:28;9.04;65.94
68098;DHT22;54886;47.036;15.466;2023-03-23T01:02:53;9.04;65.52
68098;DHT22;54886;47.036;15.466;2023-03-23T01:05:19;9.06;65.58
68098;DHT22;54886;47.036;15.466;2023-03-23T01:07:45;9.01;65.61
68098;DHT22;54886;47.036;15.466;2023-03-23T01:10:12;9.00;65.62
68098;DHT22;54886;47.036;15.466;2023-03-23T01:12:44;8.99;65.67
68098;DHT22;54886;47.036;15.466;2023-03-23T01:15:15;8.97;65.78
68098;DHT22;54886;47.036;15.466;2023-03-23T01:17:43;8.96;65.39
68098;DHT22;54886;47.036;15.466;2023-03-23T01:20:09;8.81;65.83
68098;DHT22;54886;47.036;15.466;2023-03-23T01:22:36;8.76;65.96
68098;DHT22;54886;47.036;15.466;2023-03-23T01:25:01;8.80;66.04
68098;DHT22;54886;47.036;15.466;2023-03-23T01:27:27;8.83;66.06
68098;DHT22;54886;47.036;15.466;2023-03-23T01:29:52;8.83;65.95
68098;DHT22;54886;47.036;15.466;2023-03-23T01:32:18;8.77;65.87
68098;DHT22;54886;47.036;15.466;2023-03-23T01:34:43;8.69;65.98
68098;DHT22;54886;47.036;15.466;2023-03-23T01:37:08;8.58;66.48
68098;DHT22;54886;47.036;15.466;2023-03-23T01:39:35;8.56;66.60
68098;DHT22;54886;47.036;15.466;2023-03-23T01:42:02;8.60;66.57
68098;DHT22;54886;47.036;15.466;2023-03-23T01:46:56;8.53;66.52
68098;DHT22;54886;47.036;15.466;2023-03-23T01:49:24;8.55;66.25
68098;DHT22;54886;47.036;15.466;2023-03-23T01:51:57;8.49;66.29
68098;DHT22;54886;47.036;15.466;2023-03-23T01:54:24;8.46;66.60
68098;DHT22;54886;47.036;15.466;2023-03-23T01:57:06;8.38;66.54
68098;DHT22;54886;47.036;15.466;2023-03-23T01:59:33;8.40;66.46
68098;DHT22;54886;47.036;15.466;2023-03-23T02:02:00;8.40;66.49
68098;DHT22;54886;47.036;15.466;2023-03-23T02:04:27;8.34;66.60
68098;DHT22;54886;47.036;15.466;2023-03-23T02:06:54;8.35;66.45
68098;DHT22;54886;47.036;15.466;2023-03-23T02:09:21;8.27;67.55
68098;DHT22;54886;47.036;15.466;2023-03-23T02:11:48;8.20;67.08
68098;DHT22;54886;47.036;15.466;2023-03-23T02:14:15;8.20;67.05
68098;DHT22;54886;47.036;15.466;2023-03-23T02:19:57;8.21;67.08
68098;DHT22;54886;47.036;15.466;2023-03-23T02:22:50;8.20;67.26
68098;DHT22;54886;47.036;15.466;2023-03-23T02:28:30;8.01;67.95
68098;DHT22;54886;47.036;15.466;2023-03-23T02:34:13;8.03;67.38
68098;DHT22;54886;47.036;15.466;2023-03-23T02:39:22;7.96;67.72
68098;DHT22;54886;47.036;15.466;2023-03-23T02:41:55;7.94;67.53
68098;DHT22;54886;47.036;15.466;2023-03-23T02:44:23;7.98;67.58
68098;DHT22;54886;47.036;15.466;2023-03-23T02:46:51;7.93;67.68
68098;DHT22;54886;47.036;15.466;2023-03-23T02:49:17;7.96;67.46
68098;DHT22;54886;47.036;15.466;2023-03-23T02:51:46;7.94;67.56
68098;DHT22;54886;47.036;15.466;2023-03-23T02:54:12;7.86;67.88
68098;DHT22;54886;47.036;15.466;2023-03-23T02:56:39;7.77;68.42
68098;DHT22;54886;47.036;15.466;2023-03-23T02:59:05;7.72;68.89
68098;DHT22;54886;47.036;15.466;2023-03-23T03:04:15;7.75;68.13
68098;DHT22;54886;47.036;15.466;2023-03-23T03:06:51;7.72;68.24
68098;DHT22;54886;47.036;15.466;2023-03-23T03:12:04;7.62;68.44
68098;DHT22;54886;47.036;15.466;2023-03-23T03:14:37;7.59;68.26
68098;DHT22;54886;47.036;15.466;2023-03-23T03:17:23;7.55;68.58
68098;DHT22;54886;47.036;15.466;2023-03-23T03:19:50;7.45;70.06
68098;DHT22;54886;47.036;15.466;2023-03-23T03:22:18;7.34;69.78
68098;DHT22;54886;47.036;15.466;2023-03-23T03:24:46;7.32;69.43
68098;DHT22;54886;47.036;15.466;2023-03-23T03:27:18;7.32;69.61
68098;DHT22;54886;47.036;15.466;2023-03-23T03:29:47;7.38;68.77
68098;DHT22;54886;47.036;15.466;2023-03-23T03:32:19;7.41;68.82
68098;DHT22;54886;47.036;15.466;2023-03-23T03:34:46;7.38;68.82
68098;DHT22;54886;47.036;15.466;2023-03-23T03:37:12;7.28;69.03
68098;DHT22;54886;47.036;15.466;2023-03-23T03:39:38;7.31;68.82
68098;DHT22;54886;47.036;15.466;2023-03-23T03:42:05;7.36;68.50
68098;DHT22;54886;47.036;15.466;2023-03-23T03:44:32;7.35;68.57
68098;DHT22;54886;47.036;15.466;2023-03-23T03:46:57;7.30;68.85
68098;DHT22;54886;47.036;15.466;2023-03-23T03:49:22;7.28;68.84
68098;DHT22;54886;47.036;15.466;2023-03-23T03:51:48;7.27;68.79
68098;DHT22;54886;47.036;15.466;2023-03-23T03:54:13;7.32;68.27
68098;DHT22;54886;47.036;15.466;2023-03-23T03:56:39;7.28;68.32
68098;DHT22;54886;47.036;15.466;2023-03-23T03:59:08;7.30;68.47
68098;DHT22;54886;47.036;15.466;2023-03-23T04:01:36;7.25;69.04
68098;DHT22;54886;47.036;15.466;2023-03-23T04:04:01;7.22;68.99
68098;DHT22;54886;47.036;15.466;2023-03-23T04:06:27;7.24;68.66
68098;DHT22;54886;47.036;15.466;2023-03-23T04:08:57;7.21;68.77
68098;DHT22;54886;47.036;15.466;2023-03-23T04:11:24;7.11;69.15
68098;DHT22;54886;47.036;15.466;2023-03-23T04:13:50;7.08;69.42
68098;DHT22;54886;47.036;15.466;2023-03-23T04:16:17;7.11;69.00
68098;DHT22;54886;47.036;15.466;2023-03-23T04:18:44;7.05;68.98
68098;DHT22;54886;47.036;15.466;2023-03-23T04:21:09;7.04;69.04
68098;DHT22;54886;47.036;15.466;2023-03-23T04:23:35;6.97;69.29
68098;DHT22;54886;47.036;15.466;2023-03-23T04:26:01;6.94;69.76
68098;DHT22;54886;47.036;15.466;2023-03-23T04:28:28;6.97;69.37
68098;DHT22;54886;47.036;15.466;2023-03-23T04:30:55;7.04;69.15
68098;DHT22;54886;47.036;15.466;2023-03-23T04:33:25;7.05;69.11
68098;DHT22;54886;47.036;15.466;2023-03-23T04:35:52;7.07;69.16
68098;DHT22;54886;47.036;15.466;2023-03-23T04:38:19;6.99;69.04
68098;DHT22;54886;47.036;15.466;2023-03-23T04:40:46;6.94;69.83
68098;DHT22;54886;47.036;15.466;2023-03-23T04:43:11;6.90;69.65
68098;DHT22;54886;47.036;15.466;2023-03-23T04:45:38;6.89;69.97
68098;DHT22;54886;47.036;15.466;2023-03-23T04:48:07;6.87;69.78
68098;DHT22;54886;47.036;15.466;2023-03-23T04:50:33;6.85;69.77
68098;DHT22;54886;47.036;15.466;2023-03-23T04:53:00;6.79;70.40
68098;DHT22;54886;47.036;15.466;2023-03-23T04:55:30;6.76;70.58
68098;DHT22;54886;47.036;15.466;2023-03-23T04:57:56;6.80;69.76
68098;DHT22;54886;47.036;15.466;2023-03-23T05:00:25;6.85;69.34
68098;DHT22;54886;47.036;15.466;2023-03-23T05:02:50;6.89;69.22
68098;DHT22;54886;47.036;15.466;2023-03-23T05:05:17;6.83;70.05
68098;DHT22;54886;47.036;15.466;2023-03-23T05:07:42;6.77;71.02
68098;DHT22;54886;47.036;15.466;2023-03-23T05:10:10;6.75;71.49
68098;DHT22;54886;47.036;15.466;2023-03-23T05:12:36;6.66;72.74
68098;DHT22;54886;47.036;15.466;2023-03-23T05:15:02;6.69;70.95
68098;DHT22;54886;47.036;15.466;2023-03-23T05:17:27;6.72;70.45
68098;DHT22;54886;47.036;15.466;2023-03-23T05:19:55;6.75;70.43
68098;DHT22;54886;47.036;15.466;2023-03-23T05:22:21;6.77;70.46
68098;DHT22;54886;47.036;15.466;2023-03-23T05:24:47;6.82;69.96
68098;DHT22;54886;47.036;15.466;2023-03-23T05:27:13;6.85;70.65
68098;DHT22;54886;47.036;15.466;2023-03-23T05:29:40;6.83;70.67
68098;DHT22;54886;47.036;15.466;2023-03-23T05:32:07;6.77;72.79
68098;DHT22;54886;47.036;15.466;2023-03-23T05:34:33;6.82;72.39
68098;DHT22;54886;47.036;15.466;2023-03-23T05:37:00;6.82;71.75
68098;DHT22;54886;47.036;15.466;2023-03-23T05:39:27;6.86;70.87
68098;DHT22;54886;47.036;15.466;2023-03-23T05:41:52;6.86;71.31
68098;DHT22;54886;47.036;15.466;2023-03-23T05:44:18;6.94;69.99
68098;DHT22;54886;47.036;15.466;2023-03-23T05:46:44;6.99;69.99
68098;DHT22;54886;47.036;15.466;2023-03-23T05:49:09;7.04;70.28
68098;DHT22;54886;47.036;15.466;2023-03-23T05:51:35;7.01;70.50
68098;DHT22;54886;47.036;15.466;2023-03-23T05:54:00;7.07;70.37
68098;DHT22;54886;47.036;15.466;2023-03-23T05:56:27;7.08;69.66
68098;DHT22;54886;47.036;15.466;2023-03-23T05:58:54;7.14;70.94
68098;DHT22;54886;47.036;15.466;2023-03-23T06:01:19;7.17;71.42
68098;DHT22;54886;47.036;15.466;2023-03-23T06:03:45;7.14;72.66
68098;DHT22;54886;47.036;15.466;2023-03-23T06:06:11;7.18;71.91
68098;DHT22;54886;47.036;15.466;2023-03-23T06:08:37;7.22;69.58
68098;DHT22;54886;47.036;15.466;2023-03-23T06:11:04;7.28;71.04
68098;DHT22;54886;47.036;15.466;2023-03-23T06:13:29;7.30;71.31
68098;DHT22;54886;47.036;15.466;2023-03-23T06:15:55;7.30;72.79
68098;DHT22;54886;47.036;15.466;2023-03-23T06:18:24;7.35;72.51
68098;DHT22;54886;47.036;15.466;2023-03-23T06:20:50;7.40;71.97
68098;DHT22;54886;47.036;15.466;2023-03-23T06:23:16;7.44;73.07
68098;DHT22;54886;47.036;15.466;2023-03-23T06:25:43;7.47;71.38
68098;DHT22;54886;47.036;15.466;2023-03-23T06:28:09;7.55;71.32
68098;DHT22;54886;47.036;15.466;2023-03-23T06:30:34;7.58;73.31
68098;DHT22;54886;47.036;15.466;2023-03-23T06:33:00;7.62;73.44
68098;DHT22;54886;47.036;15.466;2023-03-23T06:35:27;7.66;73.46
68098;DHT22;54886;47.036;15.466;2023-03-23T06:37:52;7.70;72.70
68098;DHT22;54886;47.036;15.466;2023-03-23T06:40:19;7.73;72.59
68098;DHT22;54886;47.036;15.466;2023-03-23T06:42:44;7.76;72.90
68098;DHT22;54886;47.036;15.466;2023-03-23T06:45:10;7.82;73.35
68098;DHT22;54886;47.036;15.466;2023-03-23T06:47:36;7.89;73.49
68098;DHT22;54886;47.036;15.466;2023-03-23T06:50:02;7.93;72.43
68098;DHT22;54886;47.036;15.466;2023-03-23T06:52:27;7.97;72.72
68098;DHT22;54886;47.036;15.466;2023-03-23T06:54:53;8.00;72.31
68098;DHT22;54886;47.036;15.466;2023-03-23T06:57:19;8.04;73.71
68098;DHT22;54886;47.036;15.466;2023-03-23T06:59:45;8.08;72.82
68098;DHT22;54886;47.036;15.466;2023-03-23T07:02:12;8.20;72.98
68098;DHT22;54886;47.036;15.466;2023-03-23T07:04:39;8.27;72.57
68098;DHT22;54886;47.036;15.466;2023-03-23T07:07:06;8.32;73.67
68098;DHT22;54886;47.036;15.466;2023-03-23T07:09:32;8.42;73.03
68098;DHT22;54886;47.036;15.466;2023-03-23T07:11:57;8.46;72.62
68098;DHT22;54886;47.036;15.466;2023-03-23T07:14:23;8.56;73.50
68098;DHT22;54886;47.036;15.466;2023-03-23T07:16:49;8.65;72.83
68098;DHT22;54886;47.036;15.466;2023-03-23T07:22:37;8.77;72.52
68098;DHT22;54886;47.036;15.466;2023-03-23T07:25:04;8.86;72.25
68098;DHT22;54886;47.036;15.466;2023-03-23T07:27:30;8.90;73.29
68098;DHT22;54886;47.036;15.466;2023-03-23T07:33:18;9.08;74.58
68098;DHT22;54886;47.036;15.466;2023-03-23T07:35:43;9.14;73.33
68098;DHT22;54886;47.036;15.466;2023-03-23T07:38:09;9.21;72.79
68098;DHT22;54886;47.036;15.466;2023-03-23T07:43:56;9.45;73.65
68098;DHT22;54886;47.036;15.466;2023-03-23T07:46:21;9.53;73.70
68098;DHT22;54886;47.036;15.466;2023-03-23T07:48:47;9.59;72.91
68098;DHT22;54886;47.036;15.466;2023-03-23T07:54:36;9.72;71.39
68098;DHT22;54886;47.036;15.466;2023-03-23T07:57:01;9.80;71.67
68098;DHT22;54886;47.036;15.466;2023-03-23T07:59:27;9.86;71.03
68098;DHT22;54886;47.036;15.466;2023-03-23T08:01:53;9.94;72.48
68098;DHT22;54886;47.036;15.466;2023-03-23T08:04:18;10.03;71.87
68098;DHT22;54886;47.036;15.466;2023-03-23T08:06:44;10.07;71.45
68098;DHT22;54886;47.036;15.466;2023-03-23T08:09:10;10.13;70.93
68098;DHT22;54886;47.036;15.466;2023-03-23T08:14:59;10.25;71.06
68098;DHT22;54886;47.036;15.466;2023-03-23T08:17:24;10.31;70.86
68098;DHT22;54886;47.036;15.466;2023-03-23T08:19:50;10.37;70.28
68098;DHT22;54886;47.036;15.466;2023-03-23T08:25:39;10.53;70.63
68098;DHT22;54886;47.036;15.466;2023-03-23T08:28:05;10.68;70.49
68098;DHT22;54886;47.036;15.466;2023-03-23T08:30:31;10.72;70.16
68098;DHT22;54886;47.036;15.466;2023-03-23T08:36:19;10.84;70.66
68098;DHT22;54886;47.036;15.466;2023-03-23T08:38:45;10.99;71.29
68098;DHT22;54886;47.036;15.466;2023-03-23T08:41:11;11.03;70.64
68098;DHT22;54886;47.036;15.466;2023-03-23T08:43:39;11.10;70.13
68098;DHT22;54886;47.036;15.466;2023-03-23T08:46:05;11.15;69.85
68098;DHT22;54886;47.036;15.466;2023-03-23T08:51:56;11.39;69.17
68098;DHT22;54886;47.036;15.466;2023-03-23T09:01:38;11.62;68.75
68098;DHT22;54886;47.036;15.466;2023-03-23T09:07:26;11.76;67.10
68098;DHT22;54886;47.036;15.466;2023-03-23T09:09:52;11.83;67.52
68098;DHT22;54886;47.036;15.466;2023-03-23T09:12:18;11.94;67.70
68098;DHT22;54886;47.036;15.466;2023-03-23T09:18:05;12.12;66.02
68098;DHT22;54886;47.036;15.466;2023-03-23T09:20:31;12.17;66.40
68098;DHT22;54886;47.036;15.466;2023-03-23T09:22:57;12.28;66.11
68098;DHT22;54886;47.036;15.466;2023-03-23T09:28:45;12.41;64.85
68098;DHT22;54886;47.036;15.466;2023-03-23T09:31:11;12.45;64.46
68098;DHT22;54886;47.036;15.466;2023-03-23T09:33:38;12.52;64.19
68098;DHT22;54886;47.036;15.466;2023-03-23T09:36:04;12.60;64.37
68098;DHT22;54886;47.036;15.466;2023-03-23T09:38:33;12.65;64.70
68098;DHT22;54886;47.036;15.466;2023-03-23T09:52:56;12.99;62.99
68098;DHT22;54886;47.036;15.466;2023-03-23T09:59:00;13.20;63.14
68098;DHT22;54886;47.036;15.466;2023-03-23T10:04:51;13.40;63.77
68098;DHT22;54886;47.036;15.466;2023-03-23T10:07:20;13.55;63.17
68098;DHT22;54886;47.036;15.466;2023-03-23T10:09:49;13.59;62.40
68098;DHT22;54886;47.036;15.466;2023-03-23T10:17:37;13.78;63.38
68098;DHT22;54886;47.036;15.466;2023-03-23T10:25:26;13.95;61.67
68098;DHT22;54886;47.036;15.466;2023-03-23T10:34:34;14.32;60.79
68098;DHT22;54886;47.036;15.466;2023-03-23T10:40:26;14.49;61.59
68098;DHT22;54886;47.036;15.466;2023-03-23T10:52:31;15.04;57.36
68098;DHT22;54886;47.036;15.466;2023-03-23T10:55:10;15.08;57.97
68098;DHT22;54886;47.036;15.466;2023-03-23T11:01:04;15.23;56.41
68098;DHT22;54886;47.036;15.466;2023-03-23T11:06:53;15.34;56.85
68098;DHT22;54886;47.036;15.466;2023-03-23T11:09:21;15.45;56.42
68098;DHT22;54886;47.036;15.466;2023-03-23T11:11:58;15.57;55.97
68098;DHT22;54886;47.036;15.466;2023-03-23T11:17:58;15.79;57.15
68098;DHT22;54886;47.036;15.466;2023-03-23T11:20:26;15.83;55.71
68098;DHT22;54886;47.036;15.466;2023-03-23T11:22:52;16.02;56.16
68098;DHT22;54886;47.036;15.466;2023-03-23T11:25:18;16.04;56.22
68098;DHT22;54886;47.036;15.466;2023-03-23T11:27:44;16.16;54.71
68098;DHT22;54886;47.036;15.466;2023-03-23T11:33:37;16.17;55.24
68098;DHT22;54886;47.036;15.466;2023-03-23T11:39:31;16.24;53.20
68098;DHT22;54886;47.036;15.466;2023-03-23T11:41:59;16.24;54.08
68098;DHT22;54886;47.036;15.466;2023-03-23T11:54:09;16.45;52.53
68098;DHT22;54886;47.036;15.466;2023-03-23T11:56:38;16.48;54.16
68098;DHT22;54886;47.036;15.466;2023-03-23T11:59:10;16.61;52.37
68098;DHT22;54886;47.036;15.466;2023-03-23T12:01:48;16.73;52.55
68098;DHT22;54886;47.036;15.466;2023-03-23T12:08:03;17.06;51.69
68098;DHT22;54886;47.036;15.466;2023-03-23T12:20:21;17.41;52.95
68098;DHT22;54886;47.036;15.466;2023-03-23T12:29:11;17.47;53.08
68098;DHT22;54886;47.036;15.466;2023-03-23T12:40:44;17.71;51.54
68098;DHT22;54886;47.036;15.466;2023-03-23T12:43:26;17.67;52.19
68098;DHT22;54886;47.036;15.466;2023-03-23T12:48:48;17.76;52.66
68098;DHT22;54886;47.036;15.466;2023-03-23T12:55:14;18.02;51.05
68098;DHT22;54886;47.036;15.466;2023-03-23T13:01:11;18.18;50.13
68098;DHT22;54886;47.036;15.466;2023-03-23T13:08:58;18.48;51.05
68098;DHT22;54886;47.036;15.466;2023-03-23T13:11:32;18.57;49.43
68098;DHT22;54886;47.036;15.466;2023-03-23T13:26:14;18.45;51.26
68098;DHT22;54886;47.036;15.466;2023-03-23T13:32:11;18.45;50.31
68098;DHT22;54886;47.036;15.466;2023-03-23T13:37:58;18.55;50.64
68098;DHT22;54886;47.036;15.466;2023-03-23T13:40:26;18.69;49.47
68098;DHT22;54886;47.036;15.466;2023-03-23T13:52:17;18.85;48.28
68098;DHT22;54886;47.036;15.466;2023-03-23T14:08:03;19.10;47.58
68098;DHT22;54886;47.036;15.466;2023-03-23T14:16:44;19.12;45.23
68098;DHT22;54886;47.036;15.466;2023-03-23T14:21:56;19.14;45.51
68098;DHT22;54886;47.036;15.466;2023-03-23T14:24:26;19.12;46.53
68098;DHT22;54886;47.036;15.466;2023-03-23T14:27:02;19.12;45.12
68098;DHT22;54886;47.036;15.466;2023-03-23T14:33:04;19.00;44.63
68098;DHT22;54886;47.036;15.466;2023-03-23T14:44:53;19.03;44.58
68098;DHT22;54886;47.036;15.466;2023-03-23T14:51:19;19.06;44.41
68098;DHT22;54886;47.036;15.466;2023-03-23T14:53:45;19.12;43.95
68098;DHT22;54886;47.036;15.466;2023-03-23T14:59:35;19.14;43.38
68098;DHT22;54886;47.036;15.466;2023-03-23T15:05:37;19.22;43.73
68098;DHT22;54886;47.036;15.466;2023-03-23T15:11:39;19.19;44.12
68098;DHT22;54886;47.036;15.466;2023-03-23T15:17:29;19.24;43.35
68098;DHT22;54886;47.036;15.466;2023-03-23T15:19:56;19.26;43.32
68098;DHT22;54886;47.036;15.466;2023-03-23T15:22:28;19.22;44.23
68098;DHT22;54886;47.036;15.466;2023-03-23T15:27:38;19.23;44.08
68098;DHT22;54886;47.036;15.466;2023-03-23T15:32:54;19.27;43.78
68098;DHT22;54886;47.036;15.466;2023-03-23T15:35:57;19.31;43.27
68098;DHT22;54886;47.036;15.466;2023-03-23T15:41:49;19.19;44.79
68098;DHT22;54886;47.036;15.466;2023-03-23T15:53:35;19.16;45.32
68098;DHT22;54886;47.036;15.466;2023-03-23T15:56:05;19.16;45.04
68098;DHT22;54886;47.036;15.466;2023-03-23T15:58:32;19.19;45.12
68098;DHT22;54886;47.036;15.466;2023-03-23T16:04:19;19.14;44.81
68098;DHT22;54886;47.036;15.466;2023-03-23T16:06:45;19.16;45.14
68098;DHT22;54886;47.036;15.466;2023-03-23T16:12:37;19.10;45.98
68098;DHT22;54886;47.036;15.466;2023-03-23T16:18:24;19.07;45.80
68098;DHT22;54886;47.036;15.466;2023-03-23T16:24:12;19.03;46.45
68098;DHT22;54886;47.036;15.466;2023-03-23T16:26:38;18.99;46.64
68098;DHT22;54886;47.036;15.466;2023-03-23T16:29:15;18.96;46.89
68098;DHT22;54886;47.036;15.466;2023-03-23T16:35:03;18.96;46.58
68098;DHT22;54886;47.036;15.466;2023-03-23T16:37:29;18.92;46.99
68098;DHT22;54886;47.036;15.466;2023-03-23T16:39:58;18.91;47.38
68098;DHT22;54886;47.036;15.466;2023-03-23T16:45:46;18.86;47.39
68098;DHT22;54886;47.036;15.466;2023-03-23T16:48:13;18.84;47.88
68098;DHT22;54886;47.036;15.466;2023-03-23T16:50:40;18.78;48.57
68098;DHT22;54886;47.036;15.466;2023-03-23T16:53:07;18.76;48.69
68098;DHT22;54886;47.036;15.466;2023-03-23T16:55:36;18.75;48.44
68098;DHT22;54886;47.036;15.466;2023-03-23T17:01:24;18.62;48.87
68098;DHT22;54886;47.036;15.466;2023-03-23T17:03:50;18.61;48.77
68098;DHT22;54886;47.036;15.466;2023-03-23T17:06:15;18.57;49.02
68098;DHT22;54886;47.036;15.466;2023-03-23T17:08:41;18.52;48.94
68098;DHT22;54886;47.036;15.466;2023-03-23T17:11:09;18.44;49.08
68098;DHT22;54886;47.036;15.466;2023-03-23T17:16:58;18.31;49.17
68098;DHT22;54886;47.036;15.466;2023-03-23T17:19:25;18.24;49.42
68098;DHT22;54886;47.036;15.466;2023-03-23T17:21:50;18.14;50.05
68098;DHT22;54886;47.036;15.466;2023-03-23T17:24:17;18.09;50.05
68098;DHT22;54886;47.036;15.466;2023-03-23T17:30:06;17.95;50.51
68098;DHT22;54886;47.036;15.466;2023-03-23T17:35:35;17.83;50.51
68098;DHT22;54886;47.036;15.466;2023-03-23T17:41:23;17.65;51.46
68098;DHT22;54886;47.036;15.466;2023-03-23T17:47:11;17.55;51.89
68098;DHT22;54886;47.036;15.466;2023-03-23T17:52:58;17.34;52.01
68098;DHT22;54886;47.036;15.466;2023-03-23T17:58:48;17.14;52.40
68098;DHT22;54886;47.036;15.466;2023-03-23T18:01:15;17.07;52.53
68098;DHT22;54886;47.036;15.466;2023-03-23T18:03:40;17.06;52.79
68098;DHT22;54886;47.036;15.466;2023-03-23T18:06:07;16.99;52.77
68098;DHT22;54886;47.036;15.466;2023-03-23T18:08:33;16.97;52.94
68098;DHT22;54886;47.036;15.466;2023-03-23T18:10:59;16.92;53.08
68098;DHT22;54886;47.036;15.466;2023-03-23T18:13:27;16.80;53.20
68098;DHT22;54886;47.036;15.466;2023-03-23T18:15:54;16.78;53.29
68098;DHT22;54886;47.036;15.466;2023-03-23T18:21:42;16.64;53.46
68098;DHT22;54886;47.036;15.466;2023-03-23T18:24:07;16.58;53.71
68098;DHT22;54886;47.036;15.466;2023-03-23T18:26:34;16.51;53.93
68098;DHT22;54886;47.036;15.466;2023-03-23T18:28:59;16.54;53.92
68098;DHT22;54886;47.036;15.466;2023-03-23T18:31:25;16.42;54.63
68098;DHT22;54886;47.036;15.466;2023-03-23T18:33:51;16.37;54.29
68098;DHT22;54886;47.036;15.466;2023-03-23T18:39:40;16.24;54.69
68098;DHT22;54886;47.036;15.466;2023-03-23T18:42:06;16.21;54.82
68098;DHT22;54886;47.036;15.466;2023-03-23T18:44:32;16.16;54.97
68098;DHT22;54886;47.036;15.466;2023-03-23T18:50:20;16.04;55.03
68098;DHT22;54886;47.036;15.466;2023-03-23T18:52:45;15.95;55.39
68098;DHT22;54886;47.036;15.466;2023-03-23T18:55:11;15.97;55.28
68098;DHT22;54886;47.036;15.466;2023-03-23T18:57:40;15.92;55.25
68098;DHT22;54886;47.036;15.466;2023-03-23T19:00:07;15.89;55.58
68098;DHT22;54886;47.036;15.466;2023-03-23T19:02:34;15.83;55.46
68098;DHT22;54886;47.036;15.466;2023-03-23T19:08:21;15.65;55.99
68098;DHT22;54886;47.036;15.466;2023-03-23T19:10:47;15.62;56.08
68098;DHT22;54886;47.036;15.466;2023-03-23T19:13:13;15.61;56.17
68098;DHT22;54886;47.036;15.466;2023-03-23T19:15:41;15.57;56.16
68098;DHT22;54886;47.036;15.466;2023-03-23T19:18:07;15.51;56.34
68098;DHT22;54886;47.036;15.466;2023-03-23T19:20:33;15.34;56.53
68098;DHT22;54886;47.036;15.466;2023-03-23T19:23:11;15.34;56.59
68098;DHT22;54886;47.036;15.466;2023-03-23T19:28:39;15.21;57.07
68098;DHT22;54886;47.036;15.466;2023-03-23T19:31:07;15.19;57.05
68098;DHT22;54886;47.036;15.466;2023-03-23T19:33:32;15.16;57.32
68098;DHT22;54886;47.036;15.466;2023-03-23T19:35:58;15.08;57.44
68098;DHT22;54886;47.036;15.466;2023-03-23T19:38:23;15.04;57.68
68098;DHT22;54886;47.036;15.466;2023-03-23T19:40:51;15.03;57.38
68098;DHT22;54886;47.036;15.466;2023-03-23T19:46:39;14.90;57.62
68098;DHT22;54886;47.036;15.466;2023-03-23T19:49:05;14.90;57.76
68098;DHT22;54886;47.036;15.466;2023-03-23T19:51:30;14.86;57.89
68098;DHT22;54886;47.036;15.466;2023-03-23T19:53:56;14.85;57.89
68098;DHT22;54886;47.036;15.466;2023-03-23T19:56:22;14.83;57.62
68098;DHT22;54886;47.036;15.466;2023-03-23T20:02:11;14.75;57.89
68098;DHT22;54886;47.036;15.466;2023-03-23T20:04:37;14.82;57.87
68098;DHT22;54886;47.036;15.466;2023-03-23T20:07:04;14.87;57.51
68098;DHT22;54886;47.036;15.466;2023-03-23T20:12:57;14.92;57.17
68098;DHT22;54886;47.036;15.466;2023-03-23T20:15:23;14.89;56.95
68098;DHT22;54886;47.036;15.466;2023-03-23T20:17:49;14.93;56.82
68098;DHT22;54886;47.036;15.466;2023-03-23T20:20:15;14.85;56.86
68098;DHT22;54886;47.036;15.466;2023-03-23T20:22:41;14.86;57.27
68098;DHT22;54886;47.036;15.466;2023-03-23T20:25:07;14.83;56.88
68098;DHT22;54886;47.036;15.466;2023-03-23T20:31:05;14.73;57.26
68098;DHT22;54886;47.036;15.466;2023-03-23T20:36:53;14.57;57.62
68098;DHT22;54886;47.036;15.466;2023-03-23T20:42:40;14.44;57.87
68098;DHT22;54886;47.036;15.466;2023-03-23T20:48:10;14.37;58.32
68098;DHT22;54886;47.036;15.466;2023-03-23T20:53:58;14.30;58.28
68098;DHT22;54886;47.036;15.466;2023-03-23T20:56:24;14.21;58.42
68098;DHT22;54886;47.036;15.466;2023-03-23T21:02:14;14.06;58.73
68098;DHT22;54886;47.036;15.466;2023-03-23T21:08:03;13.97;59.04
68098;DHT22;54886;47.036;15.466;2023-03-23T21:13:52;13.83;59.89
68098;DHT22;54886;47.036;15.466;2023-03-23T21:19:39;13.78;59.72
68098;DHT22;54886;47.036;15.466;2023-03-23T21:22:04;13.72;59.75
68098;DHT22;54886;47.036;15.466;2023-03-23T21:24:31;13.65;59.92
68098;DHT22;54886;47.036;15.466;2023-03-23T21:30:23;13.51;60.38
68098;DHT22;54886;47.036;15.466;2023-03-23T21:32:50;13.47;60.54
68098;DHT22;54886;47.036;15.466;2023-03-23T21:35:15;13.32;61.16
68098;DHT22;54886;47.036;15.466;2023-03-23T21:37:42;13.27;61.03
68098;DHT22;54886;47.036;15.466;2023-03-23T21:40:12;13.30;60.98
68098;DHT22;54886;47.036;15.466;2023-03-23T21:46:03;13.23;61.11
68098;DHT22;54886;47.036;15.466;2023-03-23T21:48:30;13.17;61.10
68098;DHT22;54886;47.036;15.466;2023-03-23T21:51:06;13.15;61.40
68098;DHT22;54886;47.036;15.466;2023-03-23T21:53:32;13.17;61.49
68098;DHT22;54886;47.036;15.466;2023-03-23T21:56:03;13.11;60.87
68098;DHT22;54886;47.036;15.466;2023-03-23T21:58:29;12.97;61.66